Timeline UpdatesTrip UpdatesNews PostsPvt Posts♥♥Travel TipsAdmin PostsConv PostsFollowed PostsChat RequestsBlog PostsPNR Posts

Disclaimer
Search
 
 
Sat Nov 1, 2014 15:54:10 ISTHomeTrainsΣChainsAtlasPNRForumGalleryNewsFAQTripsMembersLoginFeedback
No Recent News for this Train
Other Trains in the News **new
Latest...
Permanent AC-3T added from 01 Sep 12 http://indiarailinfo.com/blog/post/512304
Sat Aug 25, 2012 (09:15AM)
⇐ Return Journey: Train# 18234

18233/Narmada Express

Time-Table HAS CHANGED.
Sep 02 2014 (12:06AM)
Change Departure Station:
Change Arrival Station:
Post a Train Travel TipPost a Train Travel Tip **new
Post a Comment/Question/Picture/VideoPost a Comment/Question/Picture/Video
Pantry/Catering
✕ NO Pantry Car
✓ Catering Avbl
Loco/Rake Reversals
UJN/Ujjain Junction (8); ET/Itarsi Junction (7); KTE/Katni Junction (6);
RSA - Rake Sharing
Rake/Coach Composition
ENG-SLR-GS-GS-GS-S1-S2-S3-S4-S5-S6-S7-S8-S9-S10-A1-HA1-B1-B2-GS-GS-SLR (INDB-UJN, ET-KTE); ENG-SLR-GS-GS-B2-B1-HA1-A1-S10-S9-S8-S7-S6-S5-S4-S3-S2-S1-GS-GS-GS-SLR (UJN-ET), (KTE-BSP)
Loco
ET WAM 4/6p (INDB-ET) ET WDP4/WDM-3A (ET-KTE) ET WAM/P4 (KTE-BSP)
News    PNR    Forum    Time-Table    Availability    Fare Chart    Map    Arr/Dep History    Trips    Gallery    ΣChains    X/O    Timeline    
Travel Time: 0h 28m    1 halts    Distance: 25 km    Avg Speed: 53 km/hr
Type: Mail/Express
Zone: SECR/South East Central
Departs @ 17:15 (Avg 4m late)
Platform# 3
SMTWTFS
Indore Junction BG/INDB 
Arrives @ 17:43 (Avg 17m late)
Platform# ???
SMTWTFS
Barlai/BLAX 

1 halts. 4 intermediate Stations between Indore Junction BG and Barlai

Show ALL intermediate Stations  Show Old Time-Table

#TrkCodeStation NameX/OArrivesAvgDepartsAvgHaltPFDay#KmSpeedElevZoneAddress
1/--/INDBIndore Junction BG (3)»  -17:15+4310.050552mWRIndore 452001, Madhya Pradesh
2/--/MGGMangliyagaon (2)  17:31 17:33+1417:33 17:34+152 1m--115.067534mWRMangilya, Madhya Pradesh
3/--/BLAXBarlai•  17:41 17:43+1717:43 17:44+172 1m--125.043519mWRIndore, Madhya Pradesh
4/--/DWXDewas Junction (2)X  18:01 18:03+1318:03 18:05+222m2138.836541mWRDewas, Madhya Pradesh
5/--/NRGRNaranjipur (1)X  18:19 18:21+2418:21 18:22+272 1m1148.338537mWRDewas, Madhya Pradesh
6/--/UDMUndasa Madhopur  18:32 18:34-18:34 18:35-2 1m--155.942528mWRState Highway 18, Madhya Pradesh
7/--/KDHAKarchhaX  18:41 18:43+2218:43 18:45+222m--161.449514mWRState Highway 18, Madhya Pradesh
8/--/VRGVikram Nagar (2)  18:58 19:00+1819:00 19:01+192 1m--173.736503mWRUjjain, Madhya Pradesh
9/--/UJNUjjain Junction (8)19:10+2119:40+1930m1179.174492mWRUjjain 456001, Madhya Pradesh
10/==/TANTarana Road  20:06 20:07+2620:07 20:08+261m--1112.657498mWRMaksi, Madhya Pradesh
11/==/MKCMaksi Junction (3)X  20:18+2920:20+312m--1122.271513mWRMakshi, Madhya Pradesh
12/==/BCHBerchha (2)  20:34 20:36+3320:36 20:38+322m--1141.066490mWRShajapur, Madhya Pradesh
13/==/KSHKali Sindh (2)  20:47 20:49+3220:49 20:50+332 1m--1153.263443mWRShajapur, Madhya Pradesh
14/==/AKDAkodia (2)  21:05 21:07+3121:07 21:08+352 1m--1171.165460mWRDist. Shajapur, Madhya Pradesh
15/==/SJPShujalpur (3)X  21:18 21:20+3521:20 21:22+372m21184.169453mWRShujalpur, Madhya Pradesh
16/==/KPPKalapipal (2)X  21:31 21:33+3521:33 21:35+362m--1196.747487mWRState Highway 41, Madhya Pradesh
17/==/SEHSehore (2)  22:10 22:12+2322:12 22:14+242m21225.837500mWRMP 466001, Madhya Pradesh
18/==/BIHBairagarh (2)  22:59 23:00+623:01 23:02+92m21254.247522mWRBhopal, Madhya Pradesh
19/==/BPLBhopal Junction (6)XO  23:15+2423:25+3110m31264.538497mWCRBhopal, Madhya Pradesh
20/==/HBJBhopal HabibGanj (5)  23:35+3623:37+382m41270.764496mWCRHabibGanj, Madhya Pradesh
21/==/MDDPMandi Dip (1)X  23:52+5623:54+592m11286.814 WCRMandideep, Madhya Pradesh
22/==/ODGObaidulla GanjXO  00:53+1800:55+202m12300.458 WCRObaidullaganj Raisen Dist., Madhya Pradesh
23/==/HBDHoshangabad (2)X  01:34+3201:36+312m--2338.128308mWCRHoshangabad, Madhya Pradesh
24/==/ETItarsi Junction (7)02:15+1602:25+1910m32356.257329mWCRItarsi 461111, Madhya Pradesh
25|-=|BGTABagratawa (2)X  02:52 02:53+4602:54+482 1m--2382.677338mWCRBagra Tawa, Madhya Pradesh
26|==|SGPSohagpur (2)  03:12+5003:14+512m--2405.776340mWCRSohagpur, Madhya Pradesh
27|==|PPIPipariya (3)X  03:28+5303:30+532m12423.482338mWCRPiparia, Madhya Pradesh
28|==|SCKRSalichauka Road (2)X  03:54 03:56+5703:56 03:58+562m--2458.993355mWCRGadarwara, Madhya Pradesh
29|==|GARGadarwara (2)X  04:07+1:0004:09+592m12472.881352mWCRNarsinghpur, Madhya Pradesh
30|==|KYKareli (2)X  04:30+1:0004:32+1:002m12501.363361mWCRKareli, Madhya Pradesh
31|==|NUNarsinghpur (2)X  04:47+5704:49+572m12517.272365mWCRNarsimhapur, Madhya Pradesh
32|==|SRIDShridham (3)X  05:14 05:15+5705:16+582 1m22548.363373mWCRShridham, Madhya Pradesh
33|==|MMLMadan Mahal (3)X  06:01 06:03+4606:03 06:05+472m22597.910428mWCRJabalpur, Madhya Pradesh
34|==|JBPJabalpur Junction (4)X  06:15 06:25+3606:25 06:35+4010m32601.233416mWCRJabalpur, Madhya Pradesh
35|==|ADTLAdhartal (2)X  06:38 06:50+4506:40 06:52+462m--2609.459393mWCRJabalpur, Madhya Pradesh
36|==|DOEDeori (2)X  06:53 07:01+4506:55 07:03+452m--2618.270392mWCRJabalpur, Madhya Pradesh
37|==|GSPRGosalpur (2)X  07:08 07:12+4407:10 07:14+442m--2628.761396mWCRJabalpur, Madhya Pradesh
38|==|SHRSihora Road (2)  07:24 07:25+4307:26 07:27+432m--2639.881388mWCRJabalpur, Madhya Pradesh
39|==|DDCEDundi (2)X  07:38+4507:40+452m--2654.771415mWCRDundi, Madhya Pradesh
40|==|SBDSleemanabad Road (2)  07:48+4607:50+452m--2664.246434mWCRSleemanabad, Madhya Pradesh
41|==|SNRRSansarpur (2)  07:58 07:59-08:00-2 1m--2671.158436mWCRNational Highway 7, Madhya Pradesh
42|==|NWRNiwar (2)X  08:08+4208:10+412m--2678.916412mWCRPipraundh, Madhya Pradesh
43%==|KTEKatni Junction (6)09:00+1909:20 09:10+2520 10m--2692.016387mWCRKatni, Madhya Pradesh
44/==/JLWJhalwara  09:49+3309:51+352m--2702.670406mSECRNational Highway 78, Madhya Pradesh
45/==/RPDRupaund  10:01+3810:03+382m--2714.374417mSECRJhalwara, Madhya Pradesh
46/==/CHDChandia Road (1)  10:17+3810:19+392m12731.654406mSECRNational Highway 78, Madhya Pradesh
47/==/UMRUmaria (3)  10:40+3810:45 10:42+395 2m--2750.695469mSECRUmaria, Madhya Pradesh
48/==/KKIKarkeli  10:53 10:50+4210:55 10:52+422m--2763.260471mSECRUmaria, Madhya Pradesh
49/==/NRZBNowrozabadX  11:05 11:02+4511:07 11:04+452m--2773.362458mSECRNational Highway 78, Madhya Pradesh
50/==/BRSBirsinghpur  11:14 11:11+4111:16 11:13+412m--2780.548461mSECRPali, Madhya Pradesh
51/==/SDLShahdolX  12:00+2812:10+2710m12817.978466mSECR, Madhya Pradesh
52/==/BUHBurhar  12:26 12:25+4012:28 12:27+412m--2837.365494mSECRBurhar, Madhya Pradesh
53/==/AALAmlaiX  12:36 12:35+4212:38 12:37+432m--2846.142495mSECRAnuppur, Madhya Pradesh
54/==/APRAnuppur Junction (4)X  13:00 12:55+4013:05 13:00+455m12858.839487mSECRAnuppur, Madhya Pradesh
55%==%CLFChhulha  13:09 13:08+4813:11 13:10+572m--2863.975488mSECRMauhari, Madhya Pradesh
56%==%JTIJaithari  13:18 13:17+1:0013:20 13:19+1:012m--2872.680522mSECRAnuppur, Madhya Pradesh
57%==%NIQNigaura  13:28 13:27+1:0513:30 13:29+1:052m--2883.365547mSECRAnuppur, Madhya Pradesh
58%==%VKRVenkatnagarX  13:37 13:36+1:0713:39 13:38+1:082m--2890.979549mSECRPendra Rd, Madhya Pradesh
59%==%HRBHarri  13:47 13:46+1:1113:49 13:48+1:122m--2901.523595mSECRVenkatnagar, Madhya Pradesh
60%==%PNDPendra RoadO  14:10+5114:15 14:12+535 2m--2909.976620mSECRBilaspur district, Chhattisgarh
61%==/KOIKhodri  14:26 14:21+1:1314:28 14:23+1:132m--2921.441558mSECRBilaspur, Chhattisgarh
62/==/BHTKBhanwar TonkO  14:45 14:40+1:1314:47 14:42+1:122m--2932.942455mSECRKhodri, Chhattisgarh
63/==%KGSKhongsara  15:04 15:00+1:1015:06 15:02+1:112m--2945.464378mSECRBhanwar, Chhattisgarh
64%==%TGQTenganmadaX  15:12 15:10+1:1115:16 15:12+1:144 2m--2953.874367mSECRBelgahna, Chhattisgarh
65%==%BIGBelgahnaXO  15:24 15:20+1:1415:26 15:22+1:142m--2963.665327mSECRBilaspur, Chhattisgarh
66%==/SLKRSalkaroadO  15:33 15:29+1:1415:35 15:31+1:132m--2971.370333mSECRGhutku, Chhattisgarh
67/==/KGBKargi RoadO  15:43 15:38+1:1215:45 15:40+1:112m--2979.459327mSECRBilaspur, Chhattisgarh
68/==/KLTRKalmitarXO  15:53 15:48+1:1115:55 15:50+1:102m--2987.320300mSECRUsalapur, Chhattisgarh
69/==/GTKGhutku  16:20 16:14+5216:22 16:16+522m--2995.321288mSECRBilaspur, Chhattisgarh
70/==/USLUslapur (3)  16:45 16:38+3616:50 16:40+375 2m--21002.915272mSECRBilaspur, Chhattisgarh
71/==/BSPBilaspur Junction (8)  17:25 17:15+17-821011.5-271mSECRBilaspur, Chhattisgarh
Scroll to Top
Scroll to Bottom